createdAt,value
2022-10-17T00:00:26.024Z,12.07
2022-10-17T00:03:00.952Z,12.00
2022-10-17T00:05:37.321Z,11.87
2022-10-17T00:08:22.333Z,12.31
2022-10-17T00:11:14.068Z,12.03
2022-10-17T00:17:32.043Z,11.99
2022-10-17T00:20:10.750Z,11.87
2022-10-17T00:22:37.527Z,11.78
2022-10-17T00:25:07.747Z,12.36
2022-10-17T00:27:46.702Z,11.93
2022-10-17T00:30:24.353Z,11.84
2022-10-17T00:33:13.836Z,11.96
2022-10-17T00:35:56.430Z,11.82
2022-10-17T00:38:28.756Z,11.97
2022-10-17T00:41:07.055Z,11.91
2022-10-17T00:44:08.230Z,12.01
2022-10-17T00:48:22.526Z,12.02
2022-10-17T00:50:26.541Z,12.00
2022-10-17T00:53:10.643Z,12.22
2022-10-17T00:55:52.655Z,12.25
2022-10-17T00:58:25.280Z,12.06
2022-10-17T01:01:07.804Z,12.16
2022-10-17T01:03:37.483Z,12.21
2022-10-17T01:06:10.004Z,12.00
2022-10-17T01:08:42.660Z,11.94
2022-10-17T01:11:30.994Z,12.52
2022-10-17T01:14:28.676Z,12.09
2022-10-17T01:17:22.450Z,12.28
2022-10-17T01:20:08.170Z,12.59
2022-10-17T01:22:47.625Z,12.25
2022-10-17T01:25:46.721Z,12.53
2022-10-17T01:28:54.862Z,12.19
2022-10-17T01:31:40.243Z,11.93
2022-10-17T01:34:22.632Z,11.77
2022-10-17T01:37:20.699Z,12.05
2022-10-17T01:40:07.743Z,12.13
2022-10-17T01:43:21.812Z,11.67
2022-10-17T01:46:33.975Z,11.92
2022-10-17T01:49:18.832Z,12.08
2022-10-17T01:52:17.111Z,11.76
2022-10-17T01:54:52.714Z,12.08
2022-10-17T02:00:40.282Z,11.84
2022-10-17T02:04:18.640Z,11.68
2022-10-17T02:06:50.526Z,11.93
2022-10-17T02:09:27.907Z,11.64
2022-10-17T02:12:40.569Z,12.16
2022-10-17T02:19:03.391Z,11.74
2022-10-17T02:22:05.122Z,11.02
2022-10-17T02:24:55.268Z,11.70
2022-10-17T02:27:35.857Z,11.43
2022-10-17T02:30:32.566Z,11.19
2022-10-17T02:33:43.126Z,11.36
2022-10-17T02:36:38.298Z,11.42
2022-10-17T02:39:32.661Z,11.75
2022-10-17T02:42:16.344Z,11.68
2022-10-17T02:44:53.035Z,11.64
2022-10-17T02:47:45.176Z,11.89
2022-10-17T02:50:36.822Z,11.66
2022-10-17T02:53:14.010Z,11.69
2022-10-17T02:56:02.536Z,11.76
2022-10-17T02:59:00.434Z,11.69
2022-10-17T03:01:48.222Z,11.96
2022-10-17T03:04:33.653Z,12.16
2022-10-17T03:07:10.499Z,11.88
2022-10-17T03:10:05.216Z,12.04
2022-10-17T03:12:41.135Z,12.04
2022-10-17T03:19:21.641Z,12.35
2022-10-17T03:21:57.467Z,12.18
2022-10-17T03:24:24.401Z,12.33
2022-10-17T04:24:26.656Z,12.18
2022-10-17T04:33:36.973Z,11.95
2022-10-17T04:36:34.687Z,11.96
2022-10-17T04:39:10.772Z,12.10
2022-10-17T04:41:49.018Z,12.08
2022-10-17T04:44:18.956Z,12.15
2022-10-17T04:47:14.118Z,12.04
2022-10-17T04:52:34.382Z,12.08
2022-10-17T04:55:00.980Z,12.01
2022-10-17T04:57:39.705Z,12.23
2022-10-17T05:00:12.822Z,12.19
2022-10-17T05:02:41.813Z,12.60
2022-10-17T05:05:31.264Z,12.15
2022-10-17T05:14:59.280Z,12.27
2022-10-17T05:31:45.579Z,12.29
2022-10-17T05:34:35.048Z,12.02
2022-10-17T05:37:19.412Z,11.92
2022-10-17T05:41:13.285Z,12.11
2022-10-17T05:48:15.141Z,12.25
2022-10-17T05:51:20.064Z,12.29
2022-10-17T05:53:58.461Z,12.10
2022-10-17T06:04:38.076Z,12.29
2022-10-17T06:07:09.900Z,12.29
2022-10-17T07:15:28.161Z,14.21
2022-10-17T07:18:00.965Z,14.05
2022-10-17T07:20:35.637Z,14.46
2022-10-17T07:23:05.556Z,14.27
2022-10-17T07:25:40.147Z,14.40
2022-10-17T07:28:09.573Z,14.60
2022-10-17T07:30:36.178Z,14.68
2022-10-17T07:33:07.795Z,14.41
2022-10-17T07:35:41.865Z,14.61
2022-10-17T07:38:16.667Z,14.49
2022-10-17T07:40:43.806Z,14.64
2022-10-17T07:43:14.791Z,14.87
2022-10-17T07:45:41.808Z,14.89
2022-10-17T07:48:09.821Z,15.14
2022-10-17T07:50:39.809Z,14.95
2022-10-17T07:53:06.740Z,14.95
2022-10-17T07:55:45.088Z,15.09
2022-10-17T08:05:56.160Z,15.36
2022-10-17T08:09:11.408Z,15.58
2022-10-17T08:18:25.428Z,15.91
2022-10-17T08:21:00.317Z,15.74
2022-10-17T08:23:35.964Z,16.03
2022-10-17T08:26:33.013Z,15.86
2022-10-17T09:04:53.235Z,17.24
2022-10-17T09:07:32.826Z,17.19
2022-10-17T09:10:21.933Z,17.13
2022-10-17T09:17:54.700Z,17.45
2022-10-17T09:24:15.415Z,17.47
2022-10-17T09:26:47.473Z,17.49
2022-10-17T09:29:55.143Z,18.01
2022-10-17T09:32:34.921Z,17.95
2022-10-17T09:43:45.086Z,18.20
2022-10-17T09:46:33.091Z,18.48
2022-10-17T09:49:12.313Z,18.12
2022-10-17T09:51:48.292Z,18.25
2022-10-17T09:55:09.091Z,18.70
2022-10-17T09:58:04.753Z,18.72
2022-10-17T10:01:11.170Z,18.94
2022-10-17T10:03:37.821Z,19.12
2022-10-17T10:07:06.627Z,18.94
2022-10-17T10:09:51.732Z,18.86
2022-10-17T10:12:34.000Z,19.05
2022-10-17T10:15:34.259Z,19.40
2022-10-17T10:18:23.070Z,19.36
2022-10-17T10:21:13.121Z,19.22
2022-10-17T10:23:47.965Z,19.53
2022-10-17T10:26:29.657Z,19.37
2022-10-17T10:29:01.720Z,19.45
2022-10-17T10:31:39.873Z,19.62
2022-10-17T10:34:43.316Z,19.26
2022-10-17T10:37:20.375Z,19.85
2022-10-17T10:39:57.478Z,20.01
2022-10-17T10:42:39.476Z,20.00
2022-10-17T10:45:43.226Z,19.57
2022-10-17T10:48:39.381Z,20.28
2022-10-17T10:51:14.632Z,20.25
2022-10-17T10:53:52.771Z,20.22
2022-10-17T10:56:58.304Z,20.09
2022-10-17T10:59:45.966Z,19.60
2022-10-17T11:02:28.315Z,19.88
2022-10-17T11:05:22.570Z,20.02
2022-10-17T11:08:22.201Z,20.20
2022-10-17T11:11:01.148Z,20.35
2022-10-17T11:13:53.301Z,20.34
2022-10-17T11:16:49.598Z,20.62
2022-10-17T11:19:31.390Z,20.82
2022-10-17T11:22:28.174Z,20.90
2022-10-17T11:25:05.680Z,20.88
2022-10-17T11:27:37.522Z,20.69
2022-10-17T11:30:57.927Z,20.76
2022-10-17T11:33:58.960Z,21.19
2022-10-17T11:36:35.561Z,20.28
2022-10-17T11:39:18.318Z,20.64
2022-10-17T11:42:06.879Z,21.20
2022-10-17T11:44:40.427Z,20.92
2022-10-17T11:47:16.892Z,20.91
2022-10-17T11:53:56.513Z,21.13
2022-10-17T11:56:43.154Z,21.38
2022-10-17T11:59:31.267Z,21.60
2022-10-17T12:04:59.245Z,22.01
2022-10-17T12:07:48.626Z,22.18
2022-10-17T12:11:04.713Z,22.37
2022-10-17T12:14:04.963Z,22.43
2022-10-17T12:16:48.941Z,22.26
2022-10-17T12:19:26.580Z,21.90
2022-10-17T12:29:05.844Z,22.39
2022-10-17T12:31:45.836Z,22.53
2022-10-17T12:34:22.467Z,22.65
2022-10-17T12:36:55.332Z,22.50
2022-10-17T13:02:41.561Z,21.84
2022-10-17T13:05:18.933Z,21.92
2022-10-17T13:08:09.273Z,21.73
2022-10-17T13:10:43.067Z,21.28
2022-10-17T13:13:52.172Z,22.16
2022-10-17T13:19:26.924Z,22.11
2022-10-17T13:22:02.262Z,22.19
2022-10-17T13:25:08.760Z,22.15
2022-10-17T13:27:44.269Z,21.90
2022-10-17T13:31:23.089Z,22.50
2022-10-17T13:33:57.258Z,22.60
2022-10-17T13:36:26.625Z,22.61
2022-10-17T13:43:48.123Z,22.65
2022-10-17T13:46:39.797Z,22.49
2022-10-17T13:49:29.894Z,22.63
2022-10-17T13:52:44.906Z,22.66
2022-10-17T14:05:32.152Z,22.65
2022-10-17T14:50:17.396Z,22.21
2022-10-17T14:53:40.599Z,21.85
2022-10-17T15:19:09.009Z,21.38
2022-10-17T17:45:45.056Z,17.17
2022-10-17T17:48:31.886Z,17.01
2022-10-17T21:30:43.060Z,15.49
2022-10-17T21:33:25.625Z,15.03
2022-10-17T21:36:17.455Z,15.14
2022-10-17T21:49:28.011Z,15.13
2022-10-17T21:52:13.802Z,15.19
2022-10-17T21:54:40.454Z,15.34
2022-10-17T21:57:07.138Z,15.47
2022-10-17T21:59:35.583Z,15.51
2022-10-17T22:02:04.440Z,15.21
2022-10-17T22:04:31.513Z,15.23
2022-10-17T22:06:58.370Z,15.25
2022-10-17T22:09:26.341Z,15.29
2022-10-17T22:11:55.712Z,15.49
2022-10-17T22:14:24.984Z,15.23
2022-10-17T22:19:41.794Z,15.19
2022-10-17T22:22:08.665Z,15.33
2022-10-17T22:24:36.356Z,15.33
2022-10-17T22:27:03.161Z,15.50
2022-10-17T22:29:34.004Z,15.63
2022-10-17T22:32:01.729Z,15.40
2022-10-17T22:34:28.542Z,15.35
2022-10-17T22:36:54.994Z,15.63
2022-10-17T22:39:21.624Z,15.37
2022-10-17T22:41:50.567Z,15.61
2022-10-17T22:44:57.290Z,15.36
2022-10-17T22:47:27.168Z,15.36
2022-10-17T22:49:54.169Z,15.47
2022-10-17T22:52:23.819Z,15.46
2022-10-17T22:54:50.620Z,15.49
2022-10-17T22:57:17.245Z,15.63
2022-10-17T22:59:46.848Z,15.26
2022-10-17T23:02:13.383Z,15.45
2022-10-17T23:04:40.080Z,15.49
2022-10-17T23:07:13.235Z,15.68
2022-10-17T23:09:41.724Z,15.29
2022-10-17T23:12:09.412Z,15.44
2022-10-17T23:14:40.629Z,15.56
2022-10-17T23:17:07.243Z,15.76
2022-10-17T23:19:34.279Z,15.48
2022-10-17T23:22:03.857Z,15.59
2022-10-17T23:24:30.493Z,15.72
2022-10-17T23:26:57.232Z,15.66
2022-10-17T23:29:24.063Z,15.70
2022-10-17T23:31:58.718Z,15.19
2022-10-17T23:34:25.601Z,15.39
2022-10-17T23:37:03.235Z,15.72
2022-10-17T23:39:29.850Z,15.88
2022-10-17T23:41:56.589Z,15.76
2022-10-17T23:44:23.811Z,16.02
2022-10-17T23:46:50.560Z,15.55
2022-10-17T23:49:17.015Z,15.90
2022-10-17T23:51:43.585Z,15.40
2022-10-17T23:54:10.094Z,15.64
2022-10-17T23:56:36.683Z,15.67
2022-10-17T23:59:03.315Z,15.54
